Time;durP1;ratioP1;P1;durP2;ratioP2;P2;SDS_P1;SDS_P2;PMS_P1;PMS_P2;Temp;Humidity;BMP_temperature;BMP_pressure;BME280_temperature;BME280_humidity;BME280_pressure;Samples;Min_cycle;Max_cycle;Signal;HPM_P1;HPM_P2
2021/03/25 00:01:15;;;;;;;50.47;28.43;;;8.50;99.90;;;;;;4927650;29;20230;-83
2021/03/25 00:04:00;;;;;;;49.13;28.20;;;8.50;99.90;;;;;;4939672;29;20569;-79
2021/03/25 00:06:50;;;;;;;45.47;26.93;;;8.50;99.90;;;;;;4928623;29;20234;-80
2021/03/25 00:09:37;;;;;;;52.43;28.20;;;8.50;99.90;;;;;;4936668;29;20266;-80
2021/03/25 00:12:22;;;;;;;48.90;26.13;;;8.60;99.90;;;;;;4937194;29;20235;-80
2021/03/25 00:15:08;;;;;;;46.27;28.60;;;8.60;99.90;;;;;;4934927;29;20214;-80
2021/03/25 00:17:53;;;;;;;57.03;30.77;;;8.60;99.90;;;;;;4935340;29;20235;-81
2021/03/25 00:20:38;;;;;;;51.10;28.50;;;8.60;99.90;;;;;;4934523;29;20255;-80
2021/03/25 00:23:24;;;;;;;55.87;29.53;;;8.60;99.90;;;;;;4937536;29;20219;-81
2021/03/25 00:26:09;;;;;;;49.83;29.47;;;8.70;99.90;;;;;;4931666;29;20588;-81
2021/03/25 00:28:54;;;;;;;50.17;29.43;;;8.70;99.90;;;;;;4938445;29;20300;-81
2021/03/25 00:31:40;;;;;;;54.10;30.33;;;8.70;99.90;;;;;;4931033;29;20252;-81
2021/03/25 00:34:25;;;;;;;54.73;31.10;;;8.70;99.90;;;;;;4930258;29;20211;-81
2021/03/25 00:37:09;;;;;;;55.77;30.73;;;8.70;99.90;;;;;;4933218;29;20207;-81
2021/03/25 00:39:55;;;;;;;58.53;31.93;;;8.70;99.90;;;;;;4929633;29;20244;-80
2021/03/25 00:42:41;;;;;;;54.10;31.23;;;8.70;99.90;;;;;;4932021;29;20261;-80
2021/03/25 00:45:29;;;;;;;54.67;31.10;;;8.70;99.90;;;;;;4937387;29;20254;-81
2021/03/25 00:48:16;;;;;;;49.30;29.13;;;8.70;99.90;;;;;;4929527;29;20211;-80
2021/03/25 00:51:03;;;;;;;50.60;29.10;;;8.80;99.90;;;;;;4936866;29;20283;-80
2021/03/25 00:53:47;;;;;;;50.90;29.53;;;8.70;99.90;;;;;;4937423;29;20620;-81
2021/03/25 00:56:33;;;;;;;47.87;29.67;;;8.90;99.90;;;;;;4938774;29;20574;-81
2021/03/25 00:59:18;;;;;;;53.93;30.63;;;8.80;99.90;;;;;;4925838;29;20215;-81
2021/03/25 01:02:03;;;;;;;54.47;32.40;;;8.70;99.90;;;;;;4933081;29;20227;-81
2021/03/25 01:04:48;;;;;;;51.97;31.23;;;8.70;99.90;;;;;;4936177;29;20214;-81
2021/03/25 01:07:34;;;;;;;56.10;31.70;;;8.80;99.90;;;;;;4935518;29;20247;-80
2021/03/25 01:10:22;;;;;;;56.73;32.33;;;8.70;99.90;;;;;;4935198;29;20287;-80
2021/03/25 01:13:11;;;;;;;58.50;32.00;;;8.70;99.90;;;;;;4942175;29;20211;-80
2021/03/25 01:15:57;;;;;;;62.07;33.07;;;8.80;99.90;;;;;;4946925;29;20210;-80
2021/03/25 01:18:42;;;;;;;56.10;31.87;;;8.70;99.90;;;;;;4946382;29;20240;-81
2021/03/25 01:21:27;;;;;;;57.33;31.87;;;8.70;99.90;;;;;;4927869;29;20227;-81
2021/03/25 01:24:12;;;;;;;57.20;33.20;;;8.70;99.90;;;;;;4933276;29;20211;-81
2021/03/25 01:26:58;;;;;;;54.83;31.17;;;8.70;99.90;;;;;;4930574;29;20594;-80
2021/03/25 01:29:44;;;;;;;57.17;32.60;;;8.70;99.90;;;;;;4926549;29;20211;-81
2021/03/25 01:32:29;;;;;;;51.00;30.63;;;8.70;99.90;;;;;;4935085;29;20206;-81
2021/03/25 01:35:15;;;;;;;54.43;32.13;;;8.70;99.90;;;;;;4931711;29;20228;-79
2021/03/25 01:38:00;;;;;;;53.30;32.10;;;8.70;99.90;;;;;;4926954;29;20223;-81
2021/03/25 01:40:48;;;;;;;59.17;33.40;;;8.70;99.90;;;;;;4929178;29;20746;-80
2021/03/25 01:43:36;;;;;;;57.77;33.40;;;8.70;99.90;;;;;;4934665;29;20672;-80
2021/03/25 01:46:26;;;;;;;62.13;32.87;;;8.70;99.90;;;;;;4938907;29;20222;-81
2021/03/25 01:49:15;;;;;;;61.10;31.93;;;8.70;99.90;;;;;;4934489;29;20207;-80
2021/03/25 01:52:34;;;;;;;59.37;35.17;;;8.70;99.90;;;;;;4933242;29;20231;-81
2021/03/25 01:55:38;;;;;;;58.33;35.87;;;8.70;99.90;;;;;;4928683;29;20242;-81
2021/03/25 01:58:43;;;;;;;69.80;37.77;;;8.70;99.90;;;;;;4927962;29;20198;-81
2021/03/25 02:01:35;;;;;;;62.27;36.70;;;8.70;99.90;;;;;;4934654;29;20595;-81
2021/03/25 02:04:38;;;;;;;64.60;37.00;;;8.70;99.90;;;;;;4933224;29;20983;-81
2021/03/25 02:07:34;;;;;;;64.70;37.47;;;8.70;99.90;;;;;;4926520;29;20250;-81
2021/03/25 02:10:26;;;;;;;68.27;37.33;;;8.70;99.90;;;;;;4935259;29;20222;-81
2021/03/25 02:13:15;;;;;;;67.00;38.30;;;8.70;99.90;;;;;;4935036;29;20207;-80
2021/03/25 02:16:04;;;;;;;70.80;39.23;;;8.80;99.90;;;;;;4926519;29;20266;-80
2021/03/25 02:18:54;;;;;;;62.57;36.00;;;8.80;99.90;;;;;;4935177;29;20262;-81
2021/03/25 02:21:56;;;;;;;68.87;38.83;;;8.80;99.90;;;;;;4933740;29;20711;-80
2021/03/25 02:24:50;;;;;;;65.60;38.07;;;8.90;99.90;;;;;;4936582;29;20688;-81
2021/03/25 02:27:46;;;;;;;68.30;37.30;;;8.90;99.90;;;;;;4926181;29;20231;-80
2021/03/25 02:30:41;;;;;;;77.33;40.57;;;8.80;99.90;;;;;;4933617;29;20238;-81
2021/03/25 02:33:27;;;;;;;71.10;39.43;;;8.90;99.90;;;;;;4929052;29;20291;-81
2021/03/25 02:36:15;;;;;;;77.27;41.37;;;8.90;99.90;;;;;;4931571;29;20570;-81
2021/03/25 02:39:07;;;;;;;64.40;39.20;;;8.90;99.90;;;;;;4930904;29;20683;-81
2021/03/25 02:41:57;;;;;;;73.60;41.13;;;8.90;99.90;;;;;;4933197;29;20234;-81
2021/03/25 02:44:48;;;;;;;83.07;41.10;;;8.90;99.90;;;;;;4935478;29;20206;-81
2021/03/25 02:47:37;;;;;;;69.70;40.60;;;9.00;99.90;;;;;;4936426;29;20255;-81
2021/03/25 02:50:27;;;;;;;68.13;41.27;;;9.00;99.90;;;;;;4932876;29;20312;-81
2021/03/25 02:53:21;;;;;;;77.57;42.47;;;9.00;99.90;;;;;;4923511;29;20222;-81
2021/03/25 02:56:10;;;;;;;69.20;40.83;;;9.00;99.90;;;;;;4929043;29;20242;-80
2021/03/25 02:59:00;;;;;;;71.00;42.53;;;9.00;99.90;;;;;;4927135;29;20216;-81
2021/03/25 03:01:48;;;;;;;78.20;42.23;;;9.10;99.90;;;;;;4919862;29;20243;-81
2021/03/25 03:04:36;;;;;;;75.70;44.43;;;9.00;99.90;;;;;;4932722;29;20226;-81
2021/03/25 03:07:26;;;;;;;79.63;44.50;;;9.00;99.90;;;;;;4927995;29;20223;-81
2021/03/25 03:10:15;;;;;;;81.33;45.97;;;9.10;99.90;;;;;;4931038;29;20221;-81
2021/03/25 03:13:02;;;;;;;76.23;43.50;;;9.10;99.90;;;;;;4931913;29;20227;-80
2021/03/25 03:15:50;;;;;;;73.03;43.10;;;9.10;99.90;;;;;;4932648;29;20278;-81
2021/03/25 03:18:40;;;;;;;78.00;43.37;;;9.10;99.90;;;;;;4935962;29;20276;-81
2021/03/25 03:21:33;;;;;;;78.30;45.40;;;9.10;99.90;;;;;;4938325;29;20223;-81
2021/03/25 03:24:19;;;;;;;75.03;42.80;;;9.10;99.90;;;;;;4932053;29;20204;-80
2021/03/25 03:27:12;;;;;;;72.17;39.90;;;9.10;99.90;;;;;;4924151;29;20223;-80
2021/03/25 03:30:01;;;;;;;73.73;43.87;;;9.10;99.90;;;;;;4932202;29;20722;-81
2021/03/25 03:32:50;;;;;;;78.37;43.80;;;9.10;99.90;;;;;;4926031;29;20340;-81
2021/03/25 03:35:39;;;;;;;76.00;40.87;;;9.10;99.90;;;;;;4926591;29;20607;-81
2021/03/25 03:38:28;;;;;;;80.67;44.90;;;9.10;99.90;;;;;;4930991;29;20688;-80
2021/03/25 03:41:17;;;;;;;79.60;46.17;;;9.10;99.90;;;;;;4928157;29;20234;-80
2021/03/25 03:44:06;;;;;;;85.37;46.37;;;9.10;99.90;;;;;;4928729;29;20211;-80
2021/03/25 03:46:52;;;;;;;78.60;43.37;;;9.10;99.90;;;;;;4924125;29;20642;-81
2021/03/25 03:49:43;;;;;;;75.80;43.47;;;9.20;99.90;;;;;;4928632;29;20248;-81
2021/03/25 03:52:30;;;;;;;80.73;45.30;;;9.10;99.90;;;;;;4926137;29;20210;-80
2021/03/25 03:55:18;;;;;;;74.33;45.00;;;9.10;99.90;;;;;;4939237;28;20200;-80
2021/03/25 03:58:13;;;;;;;77.00;44.50;;;9.10;99.90;;;;;;4959102;29;20207;-79
2021/03/25 04:01:02;;;;;;;77.63;43.13;;;9.20;99.90;;;;;;4946757;29;20203;-80
2021/03/25 04:03:48;;;;;;;76.83;44.10;;;9.20;99.90;;;;;;4953006;29;20212;-79
2021/03/25 04:06:38;;;;;;;74.30;42.37;;;9.20;99.90;;;;;;4934993;29;20219;-80
2021/03/25 04:09:31;;;;;;;82.00;44.93;;;9.20;99.90;;;;;;4935108;29;20203;-81
2021/03/25 04:12:21;;;;;;;75.10;42.70;;;9.20;99.90;;;;;;4930377;29;20208;-81
2021/03/25 04:15:12;;;;;;;74.60;45.87;;;9.20;99.90;;;;;;4919851;29;20207;-81
2021/03/25 04:18:02;;;;;;;75.23;40.77;;;9.20;99.90;;;;;;4936135;29;20576;-81
2021/03/25 04:20:51;;;;;;;68.30;40.93;;;9.20;99.90;;;;;;4930750;29;20283;-81
2021/03/25 04:23:38;;;;;;;64.07;40.53;;;9.20;99.90;;;;;;4933181;29;20255;-81
2021/03/25 04:26:33;;;;;;;76.60;44.63;;;9.20;99.90;;;;;;4928501;29;20216;-81
2021/03/25 04:29:24;;;;;;;75.60;44.43;;;9.10;99.90;;;;;;4935531;29;20202;-80
2021/03/25 04:32:12;;;;;;;67.13;41.30;;;9.20;99.90;;;;;;4923598;29;20235;-81
2021/03/25 04:34:59;;;;;;;77.07;42.83;;;9.10;99.90;;;;;;4930425;29;20203;-82
2021/03/25 04:37:45;;;;;;;66.23;39.93;;;9.10;99.90;;;;;;4929294;29;20208;-80
2021/03/25 04:40:33;;;;;;;72.23;41.70;;;9.10;99.90;;;;;;4922710;29;20730;-81
2021/03/25 04:43:20;;;;;;;70.27;42.23;;;9.10;99.90;;;;;;4929048;29;20262;-81
2021/03/25 04:46:26;;;;;;;78.50;44.10;;;9.10;99.90;;;;;;4934517;29;20239;-81
2021/03/25 04:49:17;;;;;;;76.53;44.20;;;9.10;99.90;;;;;;4930602;29;20774;-81
2021/03/25 04:52:08;;;;;;;74.10;42.53;;;9.10;99.90;;;;;;4937066;29;20327;-80
2021/03/25 04:54:54;;;;;;;74.87;42.17;;;9.10;99.90;;;;;;4938076;29;20213;-81
2021/03/25 04:57:42;;;;;;;72.30;41.43;;;9.10;99.90;;;;;;4939206;29;20626;-81
2021/03/25 05:00:30;;;;;;;71.13;43.07;;;9.10;99.90;;;;;;4937850;29;20267;-81
2021/03/25 05:03:20;;;;;;;73.40;42.13;;;9.10;99.90;;;;;;4939494;29;20586;-81
2021/03/25 05:06:06;;;;;;;68.87;40.43;;;9.10;99.90;;;;;;4938624;29;20203;-81
2021/03/25 05:08:56;;;;;;;72.77;43.13;;;9.10;99.90;;;;;;4933728;29;20263;-79
2021/03/25 05:11:41;;;;;;;69.57;41.93;;;9.10;99.90;;;;;;4941360;29;20245;-79
2021/03/25 05:14:28;;;;;;;77.57;43.70;;;9.10;99.90;;;;;;4942065;29;20203;-81
2021/03/25 05:17:23;;;;;;;70.20;41.53;;;9.10;99.90;;;;;;4944725;29;20231;-81
2021/03/25 05:20:16;;;;;;;73.30;42.67;;;9.10;99.90;;;;;;4942567;29;20227;-81
2021/03/25 05:23:13;;;;;;;78.77;41.93;;;9.10;99.90;;;;;;4943372;29;20202;-80
2021/03/25 05:26:05;;;;;;;77.53;42.30;;;9.10;99.90;;;;;;4944302;29;20206;-81
2021/03/25 05:28:54;;;;;;;68.53;41.20;;;9.00;99.90;;;;;;4937432;29;20243;-81
2021/03/25 05:31:41;;;;;;;74.97;42.77;;;9.00;99.90;;;;;;4940816;29;20230;-80
2021/03/25 05:34:28;;;;;;;75.93;43.33;;;8.90;99.90;;;;;;4936043;29;20691;-80
2021/03/25 05:37:13;;;;;;;87.87;44.33;;;8.90;99.90;;;;;;4940240;29;20255;-80
2021/03/25 05:39:58;;;;;;;78.40;43.00;;;8.80;99.90;;;;;;4937580;29;20235;-80
2021/03/25 05:42:50;;;;;;;81.87;43.90;;;8.80;99.90;;;;;;4933718;29;20218;-80
2021/03/25 05:45:48;;;;;;;85.13;45.40;;;8.70;99.90;;;;;;4938157;29;20284;-80
2021/03/25 05:49:06;;;;;;;87.37;45.27;;;8.70;99.90;;;;;;4937400;29;20638;-80
2021/03/25 05:52:05;;;;;;;76.50;43.93;;;8.60;99.90;;;;;;4938751;29;20233;-80
2021/03/25 05:55:03;;;;;;;81.77;45.63;;;8.50;99.90;;;;;;4924379;29;20832;-81
2021/03/25 05:58:05;;;;;;;81.83;44.40;;;8.40;99.90;;;;;;4924543;29;20350;-80
2021/03/25 06:00:59;;;;;;;88.17;48.87;;;8.40;99.90;;;;;;4935241;29;20899;-80
2021/03/25 06:03:55;;;;;;;78.87;47.70;;;8.30;99.90;;;;;;4933987;29;20259;-80
2021/03/25 06:06:59;;;;;;;86.10;46.90;;;8.20;99.90;;;;;;4937690;29;20271;-80
2021/03/25 06:09:57;;;;;;;81.00;44.53;;;8.10;99.90;;;;;;4935095;29;20247;-80
2021/03/25 06:12:58;;;;;;;81.20;45.37;;;8.00;99.90;;;;;;4940900;29;20269;-80
2021/03/25 06:16:19;;;;;;;79.93;44.33;;;8.00;99.90;;;;;;4938781;29;20239;-80
2021/03/25 06:19:21;;;;;;;86.53;44.63;;;7.90;99.90;;;;;;4937598;29;20234;-80
2021/03/25 06:22:11;;;;;;;86.47;45.90;;;7.80;99.90;;;;;;4938960;29;20254;-80
2021/03/25 06:25:29;;;;;;;84.33;44.80;;;7.80;99.90;;;;;;4935088;29;20536;-81
2021/03/25 06:28:24;;;;;;;104.33;51.10;;;7.70;99.90;;;;;;4934420;29;20594;-80
2021/03/25 06:31:26;;;;;;;100.23;50.00;;;7.60;99.90;;;;;;4933108;29;20328;-80
2021/03/25 06:34:17;;;;;;;98.63;50.77;;;7.60;99.90;;;;;;4935290;29;20222;-81
2021/03/25 06:37:11;;;;;;;96.47;50.07;;;7.60;99.90;;;;;;4938459;29;20456;-80
2021/03/25 06:40:01;;;;;;;97.00;53.10;;;7.50;99.90;;;;;;4944048;29;20433;-81
2021/03/25 06:42:52;;;;;;;103.33;53.10;;;7.60;99.90;;;;;;4939154;29;20292;-81
2021/03/25 06:45:42;;;;;;;104.63;54.93;;;7.60;99.90;;;;;;4941914;29;20484;-79
2021/03/25 06:48:36;;;;;;;107.40;56.60;;;7.70;99.90;;;;;;4933792;29;20809;-81
2021/03/25 06:51:25;;;;;;;101.33;52.50;;;7.70;99.90;;;;;;4939036;29;20258;-81
2021/03/25 06:54:13;;;;;;;98.13;49.97;;;7.80;99.90;;;;;;4936017;29;20206;-81
2021/03/25 06:57:02;;;;;;;96.47;48.90;;;7.90;99.90;;;;;;4931781;29;20203;-81
2021/03/25 06:59:48;;;;;;;95.43;50.70;;;8.00;99.90;;;;;;4932135;29;20231;-81
2021/03/25 07:02:36;;;;;;;97.17;51.50;;;8.00;99.90;;;;;;4937983;29;20254;-81
2021/03/25 07:05:27;;;;;;;83.80;47.50;;;8.10;99.90;;;;;;4943978;29;21009;-81
2021/03/25 07:08:17;;;;;;;87.33;49.70;;;8.10;99.90;;;;;;4936389;29;20355;-81
2021/03/25 07:11:17;;;;;;;90.17;48.20;;;8.10;99.90;;;;;;4951293;29;20226;-80
2021/03/25 07:14:06;;;;;;;87.80;50.03;;;8.10;99.90;;;;;;4952905;29;20202;-80
2021/03/25 07:16:51;;;;;;;93.43;51.17;;;8.20;99.90;;;;;;4957578;29;20270;-80
2021/03/25 07:19:39;;;;;;;96.87;50.40;;;8.10;99.90;;;;;;4938997;29;20298;-80
2021/03/25 07:22:26;;;;;;;81.10;48.80;;;8.20;99.90;;;;;;4936070;29;20239;-80
2021/03/25 07:25:18;;;;;;;81.50;43.33;;;8.20;99.90;;;;;;4939083;29;20214;-81
2021/03/25 07:28:11;;;;;;;98.20;52.93;;;8.20;99.90;;;;;;4939911;29;20246;-81
2021/03/25 07:31:01;;;;;;;87.73;48.17;;;8.30;99.90;;;;;;4930127;29;20239;-81
2021/03/25 07:33:46;;;;;;;90.83;52.67;;;8.30;99.90;;;;;;4930609;29;20232;-81
2021/03/25 07:36:34;;;;;;;93.23;55.67;;;8.30;99.90;;;;;;4921399;29;20701;-81
2021/03/25 07:39:24;;;;;;;93.37;52.30;;;8.30;99.90;;;;;;4926305;29;20227;-81
2021/03/25 07:42:10;;;;;;;91.70;52.00;;;8.40;99.90;;;;;;4932061;29;20210;-81
2021/03/25 07:45:20;;;;;;;83.80;48.13;;;8.40;99.90;;;;;;4926956;29;20588;-80
2021/03/25 07:48:18;;;;;;;86.43;50.90;;;8.50;99.90;;;;;;4925314;29;20224;-81
2021/03/25 07:51:12;;;;;;;86.00;49.33;;;8.50;99.90;;;;;;4922776;29;20239;-80
2021/03/25 07:54:14;;;;;;;86.90;50.13;;;8.60;99.90;;;;;;4924990;29;20307;-80
2021/03/25 07:57:08;;;;;;;82.70;47.87;;;8.60;99.90;;;;;;4923660;29;20207;-80
2021/03/25 07:59:54;;;;;;;83.70;47.90;;;8.70;99.90;;;;;;4926978;29;20946;-81
2021/03/25 08:02:40;;;;;;;80.63;48.87;;;8.80;99.90;;;;;;4929478;29;20296;-81
2021/03/25 08:05:30;;;;;;;83.03;46.90;;;8.90;99.90;;;;;;4923319;29;20210;-80
2021/03/25 08:08:23;;;;;;;82.00;50.43;;;8.90;99.90;;;;;;4932909;29;20260;-80
2021/03/25 08:11:13;;;;;;;77.57;46.10;;;9.00;99.90;;;;;;4937717;29;20239;-80
2021/03/25 08:14:01;;;;;;;77.23;45.63;;;9.10;99.90;;;;;;4933478;29;20215;-80
2021/03/25 08:16:49;;;;;;;73.40;42.97;;;9.20;99.90;;;;;;4927760;29;20219;-80
2021/03/25 08:19:43;;;;;;;82.13;46.83;;;9.30;99.90;;;;;;4928590;29;20720;-81
2021/03/25 08:22:45;;;;;;;77.73;46.37;;;9.30;99.90;;;;;;4925689;29;20853;-80
2021/03/25 08:25:54;;;;;;;74.83;44.70;;;9.40;99.90;;;;;;4935996;29;20204;-81
2021/03/25 08:29:06;;;;;;;76.70;47.03;;;9.50;99.90;;;;;;4928149;29;20222;-80
2021/03/25 08:32:09;;;;;;;70.23;41.20;;;9.60;99.90;;;;;;4936488;29;20226;-81
2021/03/25 08:35:12;;;;;;;83.13;44.37;;;9.70;99.90;;;;;;4936407;29;20286;-80
2021/03/25 08:38:23;;;;;;;74.20;41.30;;;9.90;99.90;;;;;;4930789;29;20574;-81
2021/03/25 08:41:14;;;;;;;69.77;41.70;;;10.00;99.90;;;;;;4926751;29;20266;-80
2021/03/25 08:44:05;;;;;;;72.33;42.00;;;10.10;99.90;;;;;;4935606;29;20207;-80
2021/03/25 08:46:58;;;;;;;72.03;44.13;;;10.30;99.90;;;;;;4942918;29;20278;-81
2021/03/25 08:49:56;;;;;;;63.40;37.57;;;10.30;99.90;;;;;;4939579;29;20333;-81
2021/03/25 08:52:44;;;;;;;72.70;41.27;;;10.50;99.90;;;;;;4935198;29;20211;-81
2021/03/25 08:55:32;;;;;;;61.47;39.10;;;10.60;99.90;;;;;;4928644;29;20214;-81
2021/03/25 08:58:20;;;;;;;64.53;38.53;;;10.70;99.90;;;;;;4938033;29;20582;-81
2021/03/25 09:01:13;;;;;;;54.67;36.00;;;10.80;99.90;;;;;;4940757;29;20270;-81
2021/03/25 09:04:02;;;;;;;55.47;34.80;;;10.90;99.90;;;;;;4930114;29;20259;-83
2021/03/25 09:06:50;;;;;;;57.17;34.80;;;11.10;99.90;;;;;;4935530;29;20912;-80
2021/03/25 09:09:40;;;;;;;55.27;35.83;;;11.20;99.90;;;;;;4934370;29;20290;-81
2021/03/25 09:12:30;;;;;;;55.97;33.87;;;11.40;99.90;;;;;;4930382;29;20216;-81
2021/03/25 09:15:16;;;;;;;55.90;37.93;;;11.50;99.90;;;;;;4924192;29;20224;-81
2021/03/25 09:18:07;;;;;;;53.93;34.43;;;11.70;99.90;;;;;;4927302;29;20206;-81
2021/03/25 09:20:56;;;;;;;49.27;31.10;;;11.80;99.90;;;;;;4931286;29;20227;-82
2021/03/25 09:23:47;;;;;;;50.07;31.40;;;12.00;99.90;;;;;;4938993;29;20206;-82
2021/03/25 09:26:55;;;;;;;46.73;29.43;;;12.20;99.90;;;;;;4938463;29;20259;-82
2021/03/25 09:30:29;;;;;;;46.17;29.47;;;12.60;99.90;;;;;;4934753;29;20269;-82
2021/03/25 09:33:38;;;;;;;38.90;27.60;;;13.20;99.90;;;;;;4918363;29;20255;-82
2021/03/25 09:36:45;;;;;;;39.70;26.73;;;14.00;99.90;;;;;;4929186;29;20261;-82
2021/03/25 09:39:33;;;;;;;43.10;27.57;;;14.80;99.90;;;;;;4931333;29;20213;-82
2021/03/25 09:42:28;;;;;;;38.43;26.23;;;15.50;99.90;;;;;;4928688;29;20284;-82
2021/03/25 09:45:37;;;;;;;32.67;24.43;;;16.30;99.90;;;;;;4927844;29;20218;-82
2021/03/25 09:48:26;;;;;;;30.20;21.87;;;17.00;99.90;;;;;;4933151;29;20223;-82
2021/03/25 09:51:20;;;;;;;33.80;23.03;;;17.70;99.90;;;;;;4933016;29;20279;-82
2021/03/25 09:54:17;;;;;;;35.47;23.17;;;18.20;99.90;;;;;;4934270;29;20235;-82
2021/03/25 09:57:17;;;;;;;33.63;22.93;;;18.50;99.90;;;;;;4928232;29;20683;-82
2021/03/25 10:00:06;;;;;;;31.07;21.77;;;18.80;99.90;;;;;;4932892;29;20295;-82
2021/03/25 10:02:53;;;;;;;34.37;23.87;;;19.10;99.90;;;;;;4926494;29;20265;-82
2021/03/25 10:05:40;;;;;;;31.10;23.03;;;19.40;99.90;;;;;;4924927;29;20240;-82
2021/03/25 10:08:52;;;;;;;33.73;22.53;;;19.60;99.90;;;;;;4920727;29;20588;-82
2021/03/25 10:11:55;;;;;;;33.10;23.27;;;19.70;99.90;;;;;;4921885;29;20232;-82
2021/03/25 10:14:51;;;;;;;28.40;19.37;;;19.90;99.90;;;;;;4928753;29;20216;-82
2021/03/25 10:17:48;;;;;;;28.53;21.73;;;20.10;99.90;;;;;;4925292;29;20203;-82
2021/03/25 10:20:53;;;;;;;28.97;19.93;;;20.20;99.90;;;;;;4927936;29;20237;-81
2021/03/25 10:23:43;;;;;;;27.27;20.00;;;20.30;99.90;;;;;;4929898;29;20250;-82
2021/03/25 10:26:33;;;;;;;28.03;20.53;;;20.40;99.90;;;;;;4951373;29;20214;-81
2021/03/25 10:29:24;;;;;;;23.87;17.50;;;20.50;99.90;;;;;;4948919;29;20198;-82
2021/03/25 10:32:17;;;;;;;25.00;19.47;;;20.50;99.90;;;;;;4947806;29;20214;-81
2021/03/25 10:35:04;;;;;;;22.47;15.23;;;20.60;99.90;;;;;;4947226;29;20225;-82
2021/03/25 10:37:52;;;;;;;23.70;17.97;;;20.60;99.90;;;;;;4939922;29;20781;-82
2021/03/25 10:40:39;;;;;;;28.67;21.20;;;20.50;98.90;;;;;;4933340;29;20243;-82
2021/03/25 10:43:30;;;;;;;24.20;18.53;;;20.40;97.80;;;;;;4933382;29;20240;-82
2021/03/25 10:46:28;;;;;;;25.93;19.37;;;20.30;99.60;;;;;;4934984;29;20215;-82
2021/03/25 10:49:17;;;;;;;22.03;16.87;;;20.30;98.20;;;;;;4933805;29;20212;-82
2021/03/25 10:52:03;;;;;;;24.90;18.77;;;20.20;98.40;;;;;;4939329;29;20232;-82
2021/03/25 10:54:48;;;;;;;21.83;15.80;;;20.00;98.60;;;;;;4939369;29;20348;-82
2021/03/25 10:57:33;;;;;;;22.67;15.43;;;19.90;99.10;;;;;;4938829;29;20213;-82
2021/03/25 11:00:23;;;;;;;23.50;16.50;;;19.90;99.10;;;;;;4939195;29;20282;-82
2021/03/25 11:03:21;;;;;;;26.23;16.90;;;19.80;99.70;;;;;;4935824;29;20237;-82
2021/03/25 11:06:06;;;;;;;20.77;15.73;;;19.70;99.90;;;;;;4930651;29;20211;-82
2021/03/25 11:08:52;;;;;;;20.50;15.97;;;19.50;99.60;;;;;;4923225;29;20650;-82
2021/03/25 11:11:39;;;;;;;22.87;18.23;;;19.30;99.80;;;;;;4923642;29;20236;-82
2021/03/25 11:14:31;;;;;;;24.20;19.30;;;19.10;99.50;;;;;;4924235;29;20245;-82
2021/03/25 11:17:21;;;;;;;22.13;15.23;;;18.80;99.90;;;;;;4928384;29;20204;-82
2021/03/25 11:20:11;;;;;;;19.53;14.23;;;18.60;99.90;;;;;;4932182;29;20279;-82
2021/03/25 11:22:57;;;;;;;19.80;13.27;;;18.40;99.90;;;;;;4937963;29;20211;-82
2021/03/25 11:25:42;;;;;;;19.67;14.27;;;18.20;99.90;;;;;;4935245;29;20214;-82
2021/03/25 11:28:31;;;;;;;20.17;13.43;;;18.20;99.90;;;;;;4935721;29;20218;-82
2021/03/25 11:31:20;;;;;;;18.17;14.30;;;18.10;99.90;;;;;;4933219;29;20255;-82
2021/03/25 11:34:07;;;;;;;19.83;14.30;;;18.00;99.90;;;;;;4927272;29;20295;-82
2021/03/25 11:36:52;;;;;;;17.97;14.47;;;17.90;99.90;;;;;;4935270;29;20219;-82
2021/03/25 11:39:57;;;;;;;18.13;14.20;;;17.70;99.90;;;;;;4935136;29;20210;-81
2021/03/25 11:42:45;;;;;;;17.63;12.03;;;17.50;99.90;;;;;;4930812;29;20264;-82
2021/03/25 11:45:34;;;;;;;18.43;12.83;;;17.30;99.90;;;;;;4936098;29;20235;-82
2021/03/25 11:48:26;;;;;;;16.60;13.73;;;17.20;99.90;;;;;;4937608;29;20759;-82
2021/03/25 11:51:24;;;;;;;16.33;12.33;;;17.10;99.90;;;;;;4942413;29;20630;-82
2021/03/25 11:54:25;;;;;;;17.07;12.87;;;17.00;99.90;;;;;;4929074;29;20737;-82
2021/03/25 11:57:24;;;;;;;18.77;14.17;;;16.90;99.90;;;;;;4938931;29;20231;-82
2021/03/25 12:00:13;;;;;;;18.37;13.27;;;16.80;99.90;;;;;;4940116;29;20726;-81
2021/03/25 12:02:58;;;;;;;16.20;11.33;;;16.70;99.90;;;;;;4934208;29;20235;-81
2021/03/25 12:05:45;;;;;;;20.07;13.07;;;16.50;99.90;;;;;;4927289;29;20358;-80
2021/03/25 12:08:35;;;;;;;18.87;12.23;;;16.50;99.90;;;;;;4942160;29;20234;-81
2021/03/25 12:11:20;;;;;;;19.67;14.30;;;16.40;99.90;;;;;;4936602;29;20340;-81
2021/03/25 12:14:05;;;;;;;20.27;14.90;;;16.30;99.90;;;;;;4942577;29;20210;-81
2021/03/25 12:16:52;;;;;;;20.80;14.73;;;16.30;99.90;;;;;;4935562;29;20266;-81
2021/03/25 12:19:37;;;;;;;36.57;16.67;;;16.20;99.90;;;;;;4930771;29;20206;-81
2021/03/25 12:22:25;;;;;;;21.20;16.30;;;16.00;99.90;;;;;;4931661;29;20723;-81
2021/03/25 12:25:13;;;;;;;19.57;14.97;;;16.00;99.90;;;;;;4933088;29;20222;-81
2021/03/25 12:27:58;;;;;;;24.47;16.20;;;15.90;99.90;;;;;;4940238;29;20260;-81
2021/03/25 12:30:44;;;;;;;28.10;21.07;;;15.70;99.90;;;;;;4934114;29;20738;-81
2021/03/25 12:33:31;;;;;;;23.37;16.40;;;15.60;99.90;;;;;;4933043;29;20748;-80
2021/03/25 12:36:16;;;;;;;41.20;19.60;;;15.40;99.90;;;;;;4931774;29;20216;-82
2021/03/25 12:39:04;;;;;;;21.37;14.27;;;15.30;99.90;;;;;;4938285;29;20227;-83
2021/03/25 12:41:51;;;;;;;24.60;16.83;;;15.10;99.90;;;;;;4937195;29;20280;-82
2021/03/25 12:44:36;;;;;;;26.13;17.47;;;15.00;99.90;;;;;;4942870;29;20207;-82
2021/03/25 12:47:22;;;;;;;22.97;16.37;;;14.80;99.90;;;;;;4934440;29;20256;-82
2021/03/25 12:50:07;;;;;;;23.87;18.40;;;14.70;99.90;;;;;;4933067;29;20253;-82
2021/03/25 12:52:53;;;;;;;16.47;12.67;;;14.60;99.90;;;;;;4940399;29;20227;-82
2021/03/25 12:55:39;;;;;;;22.63;16.47;;;14.50;99.90;;;;;;4939553;29;20202;-83
2021/03/25 12:58:31;;;;;;;24.97;17.07;;;14.30;99.90;;;;;;4942247;29;20706;-83
2021/03/25 13:01:18;;;;;;;28.77;19.13;;;14.40;99.90;;;;;;4932421;29;20611;-83
2021/03/25 13:04:04;;;;;;;28.07;19.33;;;14.30;99.90;;;;;;4935456;29;20241;-83
2021/03/25 13:06:49;;;;;;;27.07;19.77;;;14.30;99.90;;;;;;4937219;29;20246;-83
2021/03/25 13:09:34;;;;;;;27.67;20.17;;;14.20;99.90;;;;;;4940041;29;20208;-83
2021/03/25 13:12:23;;;;;;;32.70;20.90;;;14.20;99.90;;;;;;4943919;29;20199;-83
2021/03/25 13:15:10;;;;;;;27.03;19.40;;;14.10;99.90;;;;;;4945577;29;20616;-83
2021/03/25 13:17:54;;;;;;;27.90;19.13;;;14.10;99.90;;;;;;4944292;29;20225;-84
2021/03/25 13:20:40;;;;;;;27.23;19.90;;;14.10;99.90;;;;;;4934882;29;20302;-83
2021/03/25 13:23:26;;;;;;;25.20;19.00;;;14.30;99.90;;;;;;4940935;29;20295;-84
2021/03/25 13:26:12;;;;;;;27.73;19.37;;;14.40;99.90;;;;;;4934875;29;20206;-83
2021/03/25 13:28:59;;;;;;;34.10;21.43;;;14.60;99.90;;;;;;4939009;29;20305;-83
2021/03/25 13:31:45;;;;;;;25.30;18.20;;;14.90;99.90;;;;;;4937408;29;20282;-82
2021/03/25 13:34:30;;;;;;;25.10;18.77;;;15.10;99.90;;;;;;4937478;29;20237;-84
2021/03/25 13:37:15;;;;;;;23.13;16.97;;;15.40;99.90;;;;;;4942329;29;20250;-83
2021/03/25 13:40:00;;;;;;;26.53;17.20;;;15.70;99.90;;;;;;4939833;29;20264;-83
2021/03/25 13:42:45;;;;;;;25.57;19.30;;;15.90;99.90;;;;;;4942099;29;20239;-83
2021/03/25 13:45:30;;;;;;;25.00;18.67;;;16.10;99.90;;;;;;4935177;29;20231;-84
2021/03/25 13:48:19;;;;;;;24.17;17.13;;;16.20;99.90;;;;;;4940272;29;20257;-83
2021/03/25 13:51:06;;;;;;;29.63;19.63;;;16.20;99.90;;;;;;4939596;29;20254;-83
2021/03/25 13:53:50;;;;;;;24.80;18.70;;;16.20;99.90;;;;;;4929821;29;20214;-82
2021/03/25 13:56:35;;;;;;;25.87;20.03;;;16.10;99.90;;;;;;4944867;29;20276;-83
2021/03/25 13:59:20;;;;;;;28.47;20.73;;;16.00;99.90;;;;;;4940229;29;20249;-82
2021/03/25 14:02:05;;;;;;;28.50;20.37;;;15.90;99.90;;;;;;4933873;29;20252;-83
2021/03/25 14:04:53;;;;;;;27.43;20.13;;;15.70;99.90;;;;;;4931485;29;20722;-81
2021/03/25 14:07:38;;;;;;;27.87;19.43;;;15.70;99.90;;;;;;4939867;29;20228;-82
2021/03/25 14:10:24;;;;;;;26.77;20.43;;;15.60;99.90;;;;;;4936253;29;20314;-83
2021/03/25 14:13:12;;;;;;;32.77;21.80;;;15.50;99.90;;;;;;4940610;29;20546;-82
2021/03/25 14:15:57;;;;;;;29.97;21.13;;;15.40;99.90;;;;;;4940114;29;20226;-82
2021/03/25 14:18:43;;;;;;;30.90;20.43;;;15.30;99.90;;;;;;4942045;29;20201;-83
2021/03/25 14:21:29;;;;;;;30.27;21.50;;;15.30;99.90;;;;;;4939589;29;20286;-82
2021/03/25 14:24:14;;;;;;;28.87;20.10;;;15.20;99.90;;;;;;4943950;29;20303;-83
2021/03/25 14:27:01;;;;;;;32.67;20.40;;;15.20;99.90;;;;;;4935327;29;20213;-83
2021/03/25 14:29:46;;;;;;;28.80;18.30;;;15.10;99.90;;;;;;4934748;29;20214;-83
2021/03/25 14:32:31;;;;;;;30.43;19.67;;;15.10;99.90;;;;;;4942104;29;20293;-83